Strona główna
METAR-TAF:

METAR-TAF

Lotnisko :

Mountain Empire Airport

Marion / Wytheville, Wirginia, Stany Zjednoczone

Szerokość geograficzna: 36-54N, Długość geograficzna: 081-21W, wysokość: 780 m

Aktualna obserwacja pogody

Raport powstał 13 minut temu, godzina 02:55 UTC
Cisza
Temperatura 23°C
Wilgotność 100%
Ciśnienie 1022 hPa
Widzialność: 11.3 km
bezchmurnie

METAR: KMKJ 200255Z AUTO 00000KT 7SM CLR 23/23 A3017 RMK AO2 T02330233

czas: 23:08 (03:08 UTC)


TAF: brakujący

Obserwacja i prognoza pogody dla ponad 4000 lotnisk (raport METAR i TAF).

Dostępne stacje oznaczono żółtymi i czerwonymi punktami na mapie.

Najedź kursorem aby zobaczyć nazwę stacji.

Kliknij aby zobaczyć obserwacje i prognozy pogody.

Aby zmienić mapę: kliknij na zielony przycisk z czarnym krzyżykiem, aby powiększyć; na zielony przycisk z myślnikiem, aby pomniejszyć; na zielone strzałki, aby przejść do map sąsiednich.


METAR-TAF: